createdAt,value
2023-03-17T00:04:48.147Z,72.45
2023-03-17T00:09:54.147Z,72.12
2023-03-17T00:14:58.756Z,71.76
2023-03-17T00:20:03.717Z,71.63
2023-03-17T00:25:20.431Z,71.97
2023-03-17T00:30:25.440Z,72.60
2023-03-17T00:35:31.178Z,73.73
2023-03-17T00:40:36.983Z,74.51
2023-03-17T00:45:42.749Z,74.81
2023-03-17T00:50:47.775Z,75.76
2023-03-17T00:55:54.609Z,77.08
2023-03-17T01:00:59.872Z,77.32
2023-03-17T01:06:07.839Z,78.18
2023-03-17T01:11:17.986Z,79.00
2023-03-17T01:16:24.688Z,80.70
2023-03-17T01:21:29.673Z,81.72
2023-03-17T01:26:35.610Z,81.22
2023-03-17T01:31:39.838Z,82.77
2023-03-17T01:36:44.226Z,82.50
2023-03-17T01:41:50.057Z,82.58
2023-03-17T01:46:55.060Z,82.48
2023-03-17T01:52:05.477Z,83.03
2023-03-17T01:57:16.298Z,85.27
2023-03-17T02:02:26.092Z,86.75
2023-03-17T02:07:30.522Z,87.22
2023-03-17T02:12:37.445Z,91.41
2023-03-17T02:17:41.694Z,93.78
2023-03-17T02:22:52.715Z,93.61
2023-03-17T02:28:00.833Z,92.58
2023-03-17T02:33:06.238Z,94.26
2023-03-17T02:38:12.166Z,93.09
2023-03-17T02:43:16.929Z,92.15
2023-03-17T02:48:23.050Z,93.04
2023-03-17T02:53:28.723Z,93.01
2023-03-17T02:58:33.096Z,90.79
2023-03-17T03:03:37.887Z,90.40
2023-03-17T03:08:43.735Z,89.68
2023-03-17T03:13:48.101Z,88.95
2023-03-17T03:18:52.340Z,88.08
2023-03-17T03:23:58.402Z,89.42
2023-03-17T03:29:02.674Z,89.33
2023-03-17T03:34:07.025Z,88.83
2023-03-17T03:39:14.429Z,88.06
2023-03-17T03:44:18.767Z,88.88
2023-03-17T03:49:23.165Z,88.42
2023-03-17T03:54:29.096Z,89.17
2023-03-17T03:59:33.255Z,88.33
2023-03-17T04:04:37.998Z,89.18
2023-03-17T04:09:43.856Z,89.65
2023-03-17T04:14:48.050Z,89.38
2023-03-17T04:19:52.524Z,88.17
2023-03-17T04:24:58.351Z,89.49
2023-03-17T04:30:02.814Z,90.44
2023-03-17T04:35:09.393Z,89.27
2023-03-17T04:40:17.231Z,89.58
2023-03-17T04:45:21.772Z,89.90
2023-03-17T04:50:25.870Z,89.69
2023-03-17T04:55:31.803Z,88.65
2023-03-17T05:00:39.026Z,88.62
2023-03-17T05:05:43.802Z,89.67
2023-03-17T05:10:49.925Z,88.83
2023-03-17T05:15:55.854Z,88.19
2023-03-17T05:21:00.251Z,87.62
2023-03-17T05:26:06.663Z,86.50
2023-03-17T05:31:11.952Z,85.91
2023-03-17T05:36:16.614Z,84.87
2023-03-17T05:41:22.277Z,84.35
2023-03-17T05:46:26.948Z,84.03
2023-03-17T05:51:31.771Z,83.14
2023-03-17T05:56:37.741Z,79.86
2023-03-17T06:01:42.130Z,75.19
2023-03-17T06:06:46.610Z,73.09
2023-03-17T06:11:52.651Z,71.11
2023-03-17T06:16:57.081Z,67.72
2023-03-17T06:22:01.686Z,64.91
2023-03-17T06:27:08.088Z,59.40
2023-03-17T06:32:20.313Z,59.72
2023-03-17T06:37:25.384Z,57.66
2023-03-17T06:42:31.736Z,52.60
2023-03-17T06:47:37.479Z,48.51
2023-03-17T06:52:42.386Z,41.84
2023-03-17T06:57:50.888Z,41.53
2023-03-17T07:02:55.480Z,36.33
2023-03-17T07:08:00.532Z,34.14
2023-03-17T07:13:08.020Z,32.86
2023-03-17T07:18:12.410Z,31.24
2023-03-17T07:23:20.350Z,29.31
2023-03-17T07:28:26.340Z,27.60
2023-03-17T07:33:31.249Z,27.00
2023-03-17T07:38:36.478Z,28.41
2023-03-17T07:43:42.611Z,26.81
2023-03-17T07:48:47.127Z,27.28
2023-03-17T07:53:52.149Z,27.19
2023-03-17T07:58:59.237Z,27.13
2023-03-17T08:04:03.666Z,27.37
2023-03-17T08:09:09.051Z,27.88
2023-03-17T08:14:15.028Z,28.30
2023-03-17T08:19:19.378Z,29.33
2023-03-17T08:24:23.758Z,30.63
2023-03-17T08:29:30.382Z,32.54
2023-03-17T08:34:35.064Z,31.70
2023-03-17T08:39:39.663Z,31.98
2023-03-17T08:44:45.499Z,32.67
2023-03-17T08:49:49.850Z,33.16
2023-03-17T08:54:58.450Z,32.91
2023-03-17T09:00:11.139Z,32.75
2023-03-17T09:05:18.738Z,32.61
2023-03-17T09:10:23.776Z,31.82
2023-03-17T09:15:29.946Z,32.29
2023-03-17T09:20:35.081Z,32.28
2023-03-17T09:25:41.597Z,31.93
2023-03-17T09:30:47.861Z,31.76
2023-03-17T09:35:53.225Z,31.38
2023-03-17T09:41:07.716Z,32.05
2023-03-17T09:46:38.870Z,32.11
2023-03-17T09:51:46.583Z,31.99
2023-03-17T09:57:01.869Z,31.85
2023-03-17T10:02:19.938Z,32.03
2023-03-17T10:07:29.936Z,31.17
2023-03-17T10:12:45.586Z,30.69
2023-03-17T10:17:53.614Z,30.52
2023-03-17T10:22:59.587Z,30.64
2023-03-17T10:28:09.186Z,30.32
2023-03-17T10:33:15.240Z,30.38
2023-03-17T10:38:21.851Z,30.89
2023-03-17T10:43:31.585Z,30.76
2023-03-17T10:48:40.187Z,30.39
2023-03-17T10:53:44.404Z,31.71
2023-03-17T10:58:51.120Z,31.92
2023-03-17T11:03:57.850Z,31.73
2023-03-17T11:09:09.603Z,31.34
2023-03-17T11:14:15.711Z,31.56
2023-03-17T11:19:23.392Z,30.71
2023-03-17T11:24:33.525Z,29.82
2023-03-17T11:30:03.694Z,30.16
2023-03-17T11:35:23.406Z,29.92
2023-03-17T11:40:34.061Z,29.54
2023-03-17T11:45:46.618Z,29.38
2023-03-17T11:50:59.879Z,29.83
2023-03-17T11:56:10.956Z,29.37
2023-03-17T12:01:19.520Z,29.81
2023-03-17T12:06:31.996Z,29.67
2023-03-17T12:11:41.358Z,30.16
2023-03-17T12:16:49.688Z,30.24
2023-03-17T12:22:00.568Z,29.91
2023-03-17T12:27:10.618Z,30.30
2023-03-17T12:32:21.179Z,30.66
2023-03-17T12:37:30.428Z,30.84
2023-03-17T12:42:48.377Z,30.84
2023-03-17T12:48:08.314Z,30.56
2023-03-17T12:53:19.945Z,30.79
2023-03-17T12:58:39.265Z,31.80
2023-03-17T13:03:57.736Z,30.49
2023-03-17T13:09:34.918Z,29.99
2023-03-17T13:14:44.532Z,30.52
2023-03-17T13:19:57.853Z,30.95
2023-03-17T13:25:27.638Z,29.92
2023-03-17T13:31:01.206Z,30.19
2023-03-17T13:36:27.977Z,30.25
2023-03-17T13:41:57.688Z,29.88
2023-03-17T13:47:27.368Z,29.74
2023-03-17T13:52:35.073Z,30.21
2023-03-17T13:57:41.236Z,29.36
2023-03-17T14:02:46.258Z,29.61
2023-03-17T14:07:56.309Z,29.61
2023-03-17T14:13:13.555Z,29.27
2023-03-17T14:18:31.469Z,28.43
2023-03-17T14:23:36.137Z,28.00
2023-03-17T14:28:42.490Z,27.83
2023-03-17T14:33:46.948Z,28.24
2023-03-17T14:38:52.654Z,28.34
2023-03-17T14:44:08.578Z,27.60
2023-03-17T14:49:22.126Z,27.82
2023-03-17T14:54:30.111Z,27.62
2023-03-17T14:59:38.173Z,28.62
2023-03-17T15:04:53.084Z,28.71
2023-03-17T15:10:01.918Z,28.89
2023-03-17T15:15:21.649Z,28.69
2023-03-17T15:20:26.756Z,29.17
2023-03-17T15:25:38.325Z,29.18
2023-03-17T15:30:47.926Z,29.59
2023-03-17T15:35:52.605Z,28.89
2023-03-17T15:40:57.388Z,29.49
2023-03-17T15:46:05.323Z,29.69
2023-03-17T15:51:12.512Z,30.32
2023-03-17T15:56:19.193Z,30.62
2023-03-17T16:01:27.770Z,30.61
2023-03-17T16:06:32.392Z,30.93
2023-03-17T16:11:37.884Z,31.36
2023-03-17T16:16:45.996Z,31.25
2023-03-17T16:21:50.757Z,31.23
2023-03-17T16:26:55.266Z,32.01
2023-03-17T16:32:01.096Z,32.06
2023-03-17T16:37:05.922Z,31.62
2023-03-17T16:42:22.347Z,31.95
2023-03-17T16:47:28.139Z,32.31
2023-03-17T16:52:32.275Z,32.61
2023-03-17T16:57:36.806Z,32.81
2023-03-17T17:02:43.175Z,32.82
2023-03-17T17:07:48.123Z,33.69
2023-03-17T17:12:53.767Z,33.07
2023-03-17T17:18:02.820Z,34.20
2023-03-17T17:23:11.658Z,34.32
2023-03-17T17:28:19.567Z,35.33
2023-03-17T17:33:26.130Z,36.15
2023-03-17T17:38:30.747Z,36.86
2023-03-17T17:43:35.109Z,37.10
2023-03-17T17:48:41.409Z,38.09
2023-03-17T17:53:49.182Z,37.81
2023-03-17T17:58:54.098Z,38.08
2023-03-17T18:04:00.015Z,38.50
2023-03-17T18:09:05.553Z,38.80
2023-03-17T18:14:11.587Z,38.79
2023-03-17T18:19:17.865Z,39.22
2023-03-17T18:24:22.289Z,39.20
2023-03-17T18:29:28.061Z,38.84
2023-03-17T18:34:36.676Z,38.89
2023-03-17T18:39:41.369Z,38.69
2023-03-17T18:44:46.137Z,38.54
2023-03-17T18:49:52.005Z,38.70
2023-03-17T18:54:56.408Z,39.42
2023-03-17T19:00:00.975Z,39.40
2023-03-17T19:05:07.810Z,39.79
2023-03-17T19:10:14.168Z,39.67
2023-03-17T19:15:18.639Z,39.98
2023-03-17T19:20:24.261Z,40.52
2023-03-17T19:25:28.752Z,40.94
2023-03-17T19:30:33.516Z,41.10
2023-03-17T19:35:40.020Z,41.72
2023-03-17T19:40:44.470Z,41.94
2023-03-17T19:45:48.913Z,42.61
2023-03-17T19:50:54.875Z,42.96
2023-03-17T19:55:59.077Z,43.58
2023-03-17T20:01:04.333Z,43.97
2023-03-17T20:06:10.150Z,44.47
2023-03-17T20:11:14.713Z,45.09
2023-03-17T20:16:19.025Z,45.18
2023-03-17T20:21:24.930Z,45.79
2023-03-17T20:26:29.347Z,46.34
2023-03-17T20:31:34.055Z,47.37
2023-03-17T20:36:42.597Z,47.15
2023-03-17T20:41:48.173Z,47.24
2023-03-17T20:46:53.225Z,47.75
2023-03-17T20:51:58.964Z,47.94
2023-03-17T20:57:03.330Z,47.94
2023-03-17T21:02:08.141Z,48.43
2023-03-17T21:07:14.772Z,48.78
2023-03-17T21:12:21.183Z,49.07
2023-03-17T21:17:26.640Z,49.28
2023-03-17T21:22:32.512Z,49.60
2023-03-17T21:27:37.860Z,49.59
2023-03-17T21:32:42.606Z,50.18
2023-03-17T21:37:48.658Z,50.48
2023-03-17T21:42:53.069Z,50.41
2023-03-17T21:47:57.620Z,50.73
2023-03-17T21:53:03.360Z,51.08
2023-03-17T21:58:08.450Z,51.63
2023-03-17T22:03:12.940Z,51.70
2023-03-17T22:08:18.631Z,52.05
2023-03-17T22:13:23.340Z,51.99
2023-03-17T22:18:27.682Z,52.28
2023-03-17T22:23:38.231Z,52.04
2023-03-17T22:28:43.290Z,52.90
2023-03-17T22:33:49.063Z,52.31
2023-03-17T22:38:56.322Z,52.64
2023-03-17T22:44:00.690Z,52.31
2023-03-17T22:49:05.685Z,53.30
2023-03-17T22:54:11.968Z,53.49
2023-03-17T22:59:16.396Z,53.92
2023-03-17T23:04:20.783Z,53.93
2023-03-17T23:09:26.803Z,53.69
2023-03-17T23:14:31.898Z,53.98
2023-03-17T23:19:36.433Z,54.15
2023-03-17T23:24:42.248Z,54.86
2023-03-17T23:29:46.728Z,55.21
2023-03-17T23:34:51.807Z,55.76
2023-03-17T23:39:57.502Z,55.63
2023-03-17T23:45:02.432Z,55.83
2023-03-17T23:50:07.976Z,56.51
2023-03-17T23:55:14.087Z,55.70
